Time;durP1;ratioP1;P1;durP2;ratioP2;P2;SDS_P1;SDS_P2;PMS_P1;PMS_P2;Temp;Humidity;BMP_temperature;BMP_pressure;BME280_temperature;BME280_humidity;BME280_pressure;Samples;Min_cycle;Max_cycle;Signal;HPM_P1;HPM_P2
2021/07/16 05:53:58;;;;;;;11.00;4.90;;;;;;;;;;10508658;28;20493;-88
2021/07/16 05:58:58;;;;;;;16.48;6.95;;;;;;;;;;10505293;28;20029;-87
2021/07/16 06:04:03;;;;;;;;;;;;;;;;;;10505179;28;20028;-87
2021/07/16 06:09:05;;;;;;;15.68;6.75;;;;;;;;;;10502284;28;20378;-87
2021/07/16 06:14:06;;;;;;;8.80;5.50;;;;;;;;;;10502500;28;20103;-87
2021/07/16 06:19:06;;;;;;;15.00;7.07;;;;;;;;;;10503975;28;20043;-87
2021/07/16 06:24:07;;;;;;;13.45;5.93;;;;;;;;;;10502726;28;20028;-86
2021/07/16 06:29:08;;;;;;;9.23;4.75;;;;;;;;;;10504940;28;20537;-85
2021/07/16 06:34:09;;;;;;;15.20;6.50;;;;;;;;;;10505390;28;20036;-87
2021/07/16 06:39:10;;;;;;;8.90;5.10;;;;;;;;;;10502338;28;20029;-86
2021/07/16 06:44:11;;;;;;;14.35;6.70;;;;;;;;;;10501692;28;20406;-87
2021/07/16 06:49:12;;;;;;;11.43;6.80;;;;;;;;;;10501870;28;20060;-86
2021/07/16 06:54:13;;;;;;;14.13;6.47;;;;;;;;;;10501540;28;20106;-86
2021/07/16 06:59:14;;;;;;;6.97;4.70;;;;;;;;;;10502091;28;20044;-87
2021/07/16 07:04:17;;;;;;;6.50;4.10;;;;;;;;;;10480625;28;20028;-87
2021/07/16 07:09:21;;;;;;;8.43;4.93;;;;;;;;;;10474724;28;20025;-88
2021/07/16 07:48:37;;;;;;;10.82;4.70;;;;;;;;;;10511937;28;20013;-86
2021/07/16 07:59:35;;;;;;;7.78;4.53;;;;;;;;;;10469096;28;20036;-86
2021/07/16 08:04:37;;;;;;;9.80;4.60;;;;;;;;;;10496522;28;20398;-85
2021/07/16 08:09:44;;;;;;;11.43;4.25;;;;;;;;;;10514616;28;20207;-86
2021/07/16 08:14:45;;;;;;;8.10;4.88;;;;;;;;;;10500038;28;20029;-86
2021/07/16 08:25:13;;;;;;;10.80;4.60;;;;;;;;;;10513769;28;20025;-86
2021/07/16 08:30:37;;;;;;;9.40;5.03;;;;;;;;;;10493174;28;20483;-87
2021/07/16 08:36:00;;;;;;;10.77;5.10;;;;;;;;;;10469352;28;20433;-86
2021/07/16 08:41:01;;;;;;;13.30;4.80;;;;;;;;;;10489370;28;20036;-86
2021/07/16 08:46:02;;;;;;;15.93;7.13;;;;;;;;;;10489980;28;20076;-87
2021/07/16 08:51:03;;;;;;;12.75;6.57;;;;;;;;;;10507745;28;20100;-86
2021/07/16 08:56:04;;;;;;;14.20;5.78;;;;;;;;;;10493536;28;20059;-85
2021/07/16 09:01:05;;;;;;;11.18;5.10;;;;;;;;;;10510444;28;20025;-87
2021/07/16 09:06:06;;;;;;;12.27;5.15;;;;;;;;;;10494439;28;20017;-86
2021/07/16 09:17:19;;;;;;;10.63;5.15;;;;;;;;;;10503784;28;20017;-87
2021/07/16 09:27:41;;;;;;;;;;;;;;;;;;10509483;28;20387;-86
2021/07/16 09:32:58;;;;;;;12.48;6.50;;;;;;;;;;10516525;28;19912;-84
2021/07/16 09:38:07;;;;;;;8.50;5.18;;;;;;;;;;10492292;28;20099;-84
2021/07/16 09:43:16;;;;;;;12.88;5.60;;;;;;;;;;10509617;28;20021;-84
2021/07/16 09:48:43;;;;;;;12.02;6.20;;;;;;;;;;10485931;28;20032;-85
2021/07/16 09:54:21;;;;;;;12.32;6.05;;;;;;;;;;10490459;28;20120;-84
2021/07/16 09:59:56;;;;;;;14.02;6.25;;;;;;;;;;10393846;28;20036;-85
2021/07/16 10:05:44;;;;;;;11.20;5.70;;;;;;;;;;10499355;28;20028;-84
2021/07/16 10:10:57;;;;;;;12.20;6.38;;;;;;;;;;10489802;28;20021;-85
2021/07/16 10:16:22;;;;;;;10.57;5.60;;;;;;;;;;10488301;28;20496;-84
2021/07/16 10:21:52;;;;;;;9.50;5.72;;;;;;;;;;10489504;28;20028;-85
2021/07/16 10:26:54;;;;;;;11.45;5.32;;;;;;;;;;10506340;28;20028;-85
2021/07/16 10:32:39;;;;;;;9.63;5.10;;;;;;;;;;10471171;28;20148;-86
2021/07/16 10:38:25;;;;;;;12.07;6.53;;;;;;;;;;10300156;28;20027;-85
2021/07/16 10:44:03;;;;;;;11.18;5.28;;;;;;;;;;10328929;28;20152;-85
2021/07/16 10:49:53;;;;;;;8.52;5.30;;;;;;;;;;10286822;28;20440;-85
2021/07/16 11:01:27;;;;;;;10.45;4.88;;;;;;;;;;10146702;29;20029;-85
2021/07/16 11:12:44;;;;;;;12.55;4.90;;;;;;;;;;10300148;28;20039;-84
2021/07/16 11:18:13;;;;;;;11.82;4.90;;;;;;;;;;10236940;28;20563;-85
2021/07/16 11:23:44;;;;;;;10.25;4.88;;;;;;;;;;10302555;28;20050;-85
2021/07/16 11:34:42;;;;;;;11.30;5.05;;;;;;;;;;10510646;28;20020;-83
2021/07/16 11:39:43;;;;;;;10.93;5.17;;;;;;;;;;10493055;28;20089;-84
2021/07/16 11:44:44;;;;;;;10.65;4.95;;;;;;;;;;10511626;28;20033;-84
2021/07/16 11:50:07;;;;;;;16.45;5.57;;;;;;;;;;10498804;28;20041;-86
2021/07/16 11:55:12;;;;;;;14.60;5.45;;;;;;;;;;10510785;28;20337;-85
2021/07/16 12:00:35;;;;;;;10.35;4.55;;;;;;;;;;10509043;28;20033;-85
2021/07/16 12:05:49;;;;;;;12.35;4.97;;;;;;;;;;10515312;28;20111;-85
2021/07/16 12:11:02;;;;;;;10.32;4.60;;;;;;;;;;10496738;28;20024;-84
2021/07/16 12:22:22;;;;;;;11.27;4.33;;;;;;;;;;10517276;28;20028;-86
2021/07/16 12:27:31;;;;;;;12.50;4.72;;;;;;;;;;10500143;28;20263;-84
2021/07/16 12:38:19;;;;;;;13.93;4.80;;;;;;;;;;10510986;28;20060;-85
2021/07/16 13:29:08;;;;;;;9.43;4.20;;;;;;;;;;10507190;28;20020;-86
2021/07/16 14:08:46;;;;;;;8.85;4.30;;;;;;;;;;10361925;28;20427;-85
2021/07/16 14:43:19;;;;;;;9.93;4.75;;;;;;;;;;10288938;28;20042;-86
2021/07/16 15:44:37;;;;;;;11.10;5.05;;;;;;;;;;10550140;28;20048;-86
2021/07/16 15:49:41;;;;;;;9.55;5.10;;;;;;;;;;10532669;28;20032;-88
2021/07/16 15:54:43;;;;;;;10.80;5.07;;;;;;;;;;10553527;28;20077;-87
2021/07/16 15:59:48;;;;;;;10.68;5.00;;;;;;;;;;10556379;28;20090;-87
2021/07/16 16:04:49;;;;;;;10.93;5.25;;;;;;;;;;10540469;28;20021;-86
2021/07/16 16:09:50;;;;;;;10.82;4.88;;;;;;;;;;10543190;28;20046;-86
2021/07/16 16:14:51;;;;;;;10.05;4.63;;;;;;;;;;10532418;28;20054;-86
2021/07/16 16:19:53;;;;;;;11.98;5.30;;;;;;;;;;10532177;28;20401;-86
2021/07/16 16:24:55;;;;;;;10.05;4.35;;;;;;;;;;10548944;28;20035;-85
2021/07/16 16:35:41;;;;;;;9.77;4.90;;;;;;;;;;10554179;28;20016;-84
2021/07/16 16:40:46;;;;;;;11.80;5.22;;;;;;;;;;10514565;28;20137;-84
2021/07/16 16:46:07;;;;;;;15.23;6.63;;;;;;;;;;10516014;28;20104;-87
2021/07/16 16:51:09;;;;;;;12.00;5.80;;;;;;;;;;10529747;28;20085;-87
2021/07/16 16:56:11;;;;;;;13.70;5.75;;;;;;;;;;10530161;28;20099;-85
2021/07/16 17:01:23;;;;;;;12.75;5.47;;;;;;;;;;10528168;28;20068;-86
2021/07/16 17:06:25;;;;;;;7.90;4.22;;;;;;;;;;10527742;28;20024;-86
2021/07/16 17:11:27;;;;;;;11.82;5.78;;;;;;;;;;10525247;28;20447;-87
2021/07/16 17:16:34;;;;;;;11.23;5.70;;;;;;;;;;10526255;28;20084;-88
2021/07/16 17:21:45;;;;;;;11.43;5.15;;;;;;;;;;10526786;28;20131;-88
2021/07/16 17:26:52;;;;;;;13.93;6.15;;;;;;;;;;10527114;28;20128;-87
2021/07/16 17:31:53;;;;;;;14.30;5.90;;;;;;;;;;10531722;28;20036;-82
2021/07/16 17:36:54;;;;;;;12.25;5.65;;;;;;;;;;10555319;28;20062;-85
2021/07/16 17:41:55;;;;;;;9.52;4.80;;;;;;;;;;10536662;28;20072;-85
2021/07/16 17:46:56;;;;;;;11.40;5.68;;;;;;;;;;10534826;28;20044;-86
2021/07/16 17:51:57;;;;;;;12.13;6.22;;;;;;;;;;10552303;28;20051;-85
2021/07/16 17:56:58;;;;;;;15.25;6.25;;;;;;;;;;10531212;28;20099;-86
2021/07/16 18:02:05;;;;;;;9.18;4.85;;;;;;;;;;10531324;28;20032;-86
2021/07/16 18:07:06;;;;;;;10.95;5.20;;;;;;;;;;10532830;28;20029;-87
2021/07/16 18:12:16;;;;;;;12.52;5.15;;;;;;;;;;10532248;28;20105;-87
2021/07/16 18:17:17;;;;;;;12.77;5.75;;;;;;;;;;10533449;28;20036;-86
2021/07/16 18:22:23;;;;;;;9.30;4.95;;;;;;;;;;10526591;28;20540;-86
2021/07/16 18:27:25;;;;;;;10.07;5.10;;;;;;;;;;10529720;28;20043;-86
2021/07/16 18:32:41;;;;;;;9.52;4.80;;;;;;;;;;10529357;28;20509;-87
2021/07/16 18:37:51;;;;;;;8.85;4.63;;;;;;;;;;10528895;28;20032;-86
2021/07/16 18:42:52;;;;;;;13.52;5.93;;;;;;;;;;10531334;28;20040;-86
2021/07/16 18:47:59;;;;;;;10.48;4.90;;;;;;;;;;10532212;28;20032;-86
2021/07/16 18:53:00;;;;;;;12.00;5.40;;;;;;;;;;10534047;28;20028;-86
2021/07/16 18:58:01;;;;;;;10.73;5.38;;;;;;;;;;10534146;28;20043;-86
2021/07/16 19:03:04;;;;;;;12.63;6.05;;;;;;;;;;10538629;28;20063;-86
2021/07/16 19:08:10;;;;;;;13.60;5.78;;;;;;;;;;10536631;28;20032;-87
2021/07/16 19:13:33;;;;;;;11.43;6.45;;;;;;;;;;10535390;28;20075;-85
2021/07/16 19:18:43;;;;;;;9.00;5.07;;;;;;;;;;10553490;28;20509;-87
2021/07/16 19:24:08;;;;;;;8.63;4.25;;;;;;;;;;10532549;28;20115;-86
2021/07/16 19:29:11;;;;;;;13.93;5.95;;;;;;;;;;10551798;28;20028;-86
2021/07/16 19:34:12;;;;;;;15.77;5.97;;;;;;;;;;10536783;28;20085;-86
2021/07/16 19:39:13;;;;;;;12.98;6.25;;;;;;;;;;10541319;28;20043;-86
2021/07/16 19:44:14;;;;;;;11.85;4.95;;;;;;;;;;10538414;28;20383;-86
2021/07/16 19:49:23;;;;;;;9.82;5.03;;;;;;;;;;10555380;28;20039;-86
2021/07/16 19:54:25;;;;;;;11.02;5.43;;;;;;;;;;10536163;28;20148;-86
2021/07/16 19:59:26;;;;;;;10.73;5.05;;;;;;;;;;10541061;28;20043;-87
2021/07/16 20:04:28;;;;;;;8.50;4.45;;;;;;;;;;10543366;28;20036;-85
2021/07/16 20:09:39;;;;;;;10.73;5.18;;;;;;;;;;10575901;28;20024;-85
2021/07/16 20:14:40;;;;;;;8.93;4.97;;;;;;;;;;10560036;28;20040;-85
2021/07/16 20:19:41;;;;;;;11.43;5.57;;;;;;;;;;10540573;28;20145;-85
2021/07/16 20:24:42;;;;;;;8.10;4.40;;;;;;;;;;10542551;28;20040;-83
2021/07/16 20:29:43;;;;;;;8.13;4.45;;;;;;;;;;10545344;28;20101;-83
2021/07/16 20:34:46;;;;;;;6.90;4.20;;;;;;;;;;10542672;28;20107;-84
2021/07/16 20:39:49;;;;;;;8.00;4.53;;;;;;;;;;10542471;28;20034;-84
2021/07/16 20:44:50;;;;;;;8.98;4.28;;;;;;;;;;10540625;28;20445;-84
2021/07/16 20:49:51;;;;;;;8.10;4.60;;;;;;;;;;10541242;28;20036;-83
2021/07/16 20:54:52;;;;;;;9.43;4.55;;;;;;;;;;10541852;28;20494;-84
2021/07/16 20:59:53;;;;;;;9.80;4.85;;;;;;;;;;10540395;28;20036;-84
2021/07/16 21:04:54;;;;;;;11.30;6.53;;;;;;;;;;10541830;28;20032;-83
2021/07/16 21:09:54;;;;;;;10.75;5.47;;;;;;;;;;10541703;28;20371;-84
2021/07/16 21:14:55;;;;;;;7.18;3.65;;;;;;;;;;10541003;28;20040;-83
2021/07/16 21:19:57;;;;;;;7.75;4.32;;;;;;;;;;10540893;28;20066;-84
2021/07/16 21:24:58;;;;;;;12.50;5.95;;;;;;;;;;10544458;28;20056;-84
2021/07/16 21:29:59;;;;;;;8.68;4.63;;;;;;;;;;10541729;28;20494;-83
2021/07/16 21:35:00;;;;;;;7.97;4.68;;;;;;;;;;10540778;28;20028;-84
2021/07/16 21:40:01;;;;;;;10.20;5.30;;;;;;;;;;10541413;28;20040;-83
2021/07/16 21:45:03;;;;;;;7.75;4.72;;;;;;;;;;10540332;28;20028;-83
2021/07/16 21:50:04;;;;;;;11.38;6.25;;;;;;;;;;10545041;28;20066;-83
2021/07/16 21:55:07;;;;;;;12.63;5.55;;;;;;;;;;10536380;28;20073;-85
2021/07/16 22:00:11;;;;;;;7.45;4.45;;;;;;;;;;10540875;28;20131;-83
2021/07/16 22:05:13;;;;;;;15.52;7.00;;;;;;;;;;10541221;28;20036;-84
2021/07/16 22:10:14;;;;;;;13.10;5.63;;;;;;;;;;10541042;28;20058;-84
2021/07/16 22:15:15;;;;;;;10.63;4.90;;;;;;;;;;10539377;28;20040;-85
2021/07/16 22:20:16;;;;;;;8.07;4.95;;;;;;;;;;10540962;28;20497;-84
2021/07/16 22:25:19;;;;;;;19.33;8.35;;;;;;;;;;10538330;28;20036;-81
2021/07/16 22:30:20;;;;;;;14.90;6.97;;;;;;;;;;10544217;28;20051;-82
2021/07/16 22:35:22;;;;;;;8.55;4.82;;;;;;;;;;10565325;28;20062;-83
2021/07/16 22:40:23;;;;;;;13.90;7.13;;;;;;;;;;10567490;28;20032;-82
2021/07/16 22:45:26;;;;;;;11.57;6.07;;;;;;;;;;10555606;28;20028;-87
2021/07/16 22:50:27;;;;;;;15.50;7.00;;;;;;;;;;10552636;28;20060;-86
2021/07/16 22:55:28;;;;;;;14.20;6.72;;;;;;;;;;10542785;28;20490;-85
2021/07/16 23:00:30;;;;;;;12.00;6.70;;;;;;;;;;10543852;28;20039;-85
2021/07/16 23:05:31;;;;;;;14.30;6.47;;;;;;;;;;10560825;28;20034;-85
2021/07/16 23:10:32;;;;;;;16.33;7.68;;;;;;;;;;10543321;28;20143;-85
2021/07/16 23:15:33;;;;;;;15.25;8.18;;;;;;;;;;10544282;28;20535;-85
2021/07/16 23:20:34;;;;;;;7.90;4.88;;;;;;;;;;10543105;28;20036;-86
2021/07/16 23:25:35;;;;;;;7.82;4.85;;;;;;;;;;10544819;28;20050;-85
2021/07/16 23:30:36;;;;;;;7.95;5.47;;;;;;;;;;10540752;28;20051;-85
2021/07/16 23:35:38;;;;;;;9.18;5.30;;;;;;;;;;10538935;28;20165;-82
2021/07/16 23:40:38;;;;;;;12.02;6.03;;;;;;;;;;10537546;28;20036;-82
2021/07/16 23:45:41;;;;;;;15.88;7.68;;;;;;;;;;10554725;28;20059;-82
2021/07/16 23:50:43;;;;;;;9.00;5.82;;;;;;;;;;10537367;28;20035;-82
2021/07/16 23:55:44;;;;;;;16.63;8.40;;;;;;;;;;10536215;28;20025;-81
